sensor_id;sensor_type;location;lat;lon;timestamp;pressure;altitude;pressure_sealevel;temperature;humidity
11077;BME280;5591;42.626;23.380;2022-07-29T00:00:49;94378.00;;;19.35;100.00
11077;BME280;5591;42.626;23.380;2022-07-29T00:03:15;94372.53;;;19.41;100.00
11077;BME280;5591;42.626;23.380;2022-07-29T00:05:42;94364.59;;;19.30;100.00
11077;BME280;5591;42.626;23.380;2022-07-29T00:08:09;94374.63;;;19.39;100.00
11077;BME280;5591;42.626;23.380;2022-07-29T00:10:37;94382.16;;;19.31;100.00
11077;BME280;5591;42.626;23.380;2022-07-29T00:13:04;94381.22;;;19.37;100.00
11077;BME280;5591;42.626;23.380;2022-07-29T00:15:31;94383.41;;;19.40;100.00
11077;BME280;5591;42.626;23.380;2022-07-29T00:17:57;94383.59;;;19.50;100.00
11077;BME280;5591;42.626;23.380;2022-07-29T00:20:24;94394.91;;;19.57;100.00
11077;BME280;5591;42.626;23.380;2022-07-29T00:22:51;94389.44;;;19.63;100.00
11077;BME280;5591;42.626;23.380;2022-07-29T00:25:18;94405.50;;;19.68;100.00
11077;BME280;5591;42.626;23.380;2022-07-29T00:27:47;94404.00;;;19.72;100.00
11077;BME280;5591;42.626;23.380;2022-07-29T00:30:14;94399.03;;;19.64;100.00
11077;BME280;5591;42.626;23.380;2022-07-29T00:32:40;94390.13;;;19.70;100.00
11077;BME280;5591;42.626;23.380;2022-07-29T00:35:08;94395.19;;;19.72;100.00
11077;BME280;5591;42.626;23.380;2022-07-29T00:37:53;94382.53;;;19.79;100.00
11077;BME280;5591;42.626;23.380;2022-07-29T00:40:20;94373.25;;;19.65;100.00
11077;BME280;5591;42.626;23.380;2022-07-29T00:42:50;94363.19;;;19.55;100.00
11077;BME280;5591;42.626;23.380;2022-07-29T00:45:17;94373.13;;;19.60;100.00
11077;BME280;5591;42.626;23.380;2022-07-29T00:47:45;94391.72;;;19.71;100.00
11077;BME280;5591;42.626;23.380;2022-07-29T00:50:12;94385.34;;;19.72;100.00
11077;BME280;5591;42.626;23.380;2022-07-29T00:52:40;94359.75;;;19.55;100.00
11077;BME280;5591;42.626;23.380;2022-07-29T00:55:09;94395.28;;;19.77;100.00
11077;BME280;5591;42.626;23.380;2022-07-29T00:57:38;94393.53;;;19.82;100.00
11077;BME280;5591;42.626;23.380;2022-07-29T01:00:08;94393.41;;;19.77;100.00
11077;BME280;5591;42.626;23.380;2022-07-29T01:02:36;94391.19;;;19.86;100.00
11077;BME280;5591;42.626;23.380;2022-07-29T01:05:04;94378.66;;;19.86;100.00
11077;BME280;5591;42.626;23.380;2022-07-29T01:07:32;94313.41;;;19.39;100.00
11077;BME280;5591;42.626;23.380;2022-07-29T01:10:01;94381.25;;;19.81;100.00
11077;BME280;5591;42.626;23.380;2022-07-29T01:12:30;94380.09;;;19.77;100.00
11077;BME280;5591;42.626;23.380;2022-07-29T01:14:58;94377.38;;;19.72;100.00
11077;BME280;5591;42.626;23.380;2022-07-29T01:17:33;94380.75;;;19.68;100.00
11077;BME280;5591;42.626;23.380;2022-07-29T01:20:05;94380.16;;;19.49;100.00
11077;BME280;5591;42.626;23.380;2022-07-29T01:22:53;94369.31;;;19.39;100.00
11077;BME280;5591;42.626;23.380;2022-07-29T01:25:41;94384.22;;;19.40;100.00
11077;BME280;5591;42.626;23.380;2022-07-29T01:28:20;94381.53;;;19.24;100.00
11077;BME280;5591;42.626;23.380;2022-07-29T01:30:51;94377.25;;;19.23;100.00
11077;BME280;5591;42.626;23.380;2022-07-29T01:33:21;94373.31;;;19.42;100.00
11077;BME280;5591;42.626;23.380;2022-07-29T01:38:56;94378.22;;;19.61;100.00
11077;BME280;5591;42.626;23.380;2022-07-29T01:41:26;94372.00;;;19.56;100.00
11077;BME280;5591;42.626;23.380;2022-07-29T01:43:59;94365.06;;;19.55;100.00
11077;BME280;5591;42.626;23.380;2022-07-29T01:46:33;94370.78;;;19.47;100.00
11077;BME280;5591;42.626;23.380;2022-07-29T01:49:06;94359.56;;;19.45;100.00
11077;BME280;5591;42.626;23.380;2022-07-29T01:51:40;94365.59;;;19.40;100.00
11077;BME280;5591;42.626;23.380;2022-07-29T01:54:12;94361.28;;;19.23;100.00
11077;BME280;5591;42.626;23.380;2022-07-29T01:56:40;94370.75;;;19.19;100.00
11077;BME280;5591;42.626;23.380;2022-07-29T01:59:10;94362.06;;;19.23;100.00
11077;BME280;5591;42.626;23.380;2022-07-29T02:01:40;94345.66;;;19.15;100.00
11077;BME280;5591;42.626;23.380;2022-07-29T02:04:10;94361.97;;;19.07;100.00
11077;BME280;5591;42.626;23.380;2022-07-29T02:06:40;94356.94;;;18.94;100.00
11077;BME280;5591;42.626;23.380;2022-07-29T02:09:10;94340.19;;;18.82;100.00
11077;BME280;5591;42.626;23.380;2022-07-29T02:11:40;94352.78;;;18.86;100.00
11077;BME280;5591;42.626;23.380;2022-07-29T02:14:10;94354.53;;;18.81;100.00
11077;BME280;5591;42.626;23.380;2022-07-29T02:16:40;94351.63;;;18.82;100.00
11077;BME280;5591;42.626;23.380;2022-07-29T02:19:08;94347.69;;;18.85;100.00
11077;BME280;5591;42.626;23.380;2022-07-29T02:21:38;94348.19;;;18.82;100.00
11077;BME280;5591;42.626;23.380;2022-07-29T02:24:07;94347.13;;;18.83;100.00
11077;BME280;5591;42.626;23.380;2022-07-29T02:26:35;94344.84;;;18.75;100.00
11077;BME280;5591;42.626;23.380;2022-07-29T02:29:02;94346.22;;;18.77;100.00
11077;BME280;5591;42.626;23.380;2022-07-29T02:31:32;94344.94;;;18.80;100.00
11077;BME280;5591;42.626;23.380;2022-07-29T02:34:01;94334.75;;;18.88;100.00
11077;BME280;5591;42.626;23.380;2022-07-29T02:36:29;94337.97;;;18.90;100.00
11077;BME280;5591;42.626;23.380;2022-07-29T02:38:57;94334.84;;;18.93;100.00
11077;BME280;5591;42.626;23.380;2022-07-29T02:41:28;94309.00;;;18.77;100.00
11077;BME280;5591;42.626;23.380;2022-07-29T02:43:57;94334.38;;;18.96;100.00
11077;BME280;5591;42.626;23.380;2022-07-29T02:46:29;94335.88;;;18.92;100.00
11077;BME280;5591;42.626;23.380;2022-07-29T02:49:02;94326.41;;;18.96;100.00
11077;BME280;5591;42.626;23.380;2022-07-29T02:51:36;94325.69;;;19.01;100.00
11077;BME280;5591;42.626;23.380;2022-07-29T02:54:07;94326.19;;;19.14;100.00
11077;BME280;5591;42.626;23.380;2022-07-29T02:56:36;94350.06;;;19.09;100.00
11077;BME280;5591;42.626;23.380;2022-07-29T02:59:09;94327.50;;;19.12;100.00
11077;BME280;5591;42.626;23.380;2022-07-29T03:01:39;94327.97;;;19.09;100.00
11077;BME280;5591;42.626;23.380;2022-07-29T03:04:08;94321.50;;;19.05;100.00
11077;BME280;5591;42.626;23.380;2022-07-29T03:06:37;94333.28;;;19.09;100.00
11077;BME280;5591;42.626;23.380;2022-07-29T03:09:06;94326.47;;;19.13;100.00
11077;BME280;5591;42.626;23.380;2022-07-29T03:11:34;94315.22;;;18.83;100.00
11077;BME280;5591;42.626;23.380;2022-07-29T03:14:02;94327.75;;;18.71;100.00
11077;BME280;5591;42.626;23.380;2022-07-29T03:16:29;94316.41;;;18.75;100.00
11077;BME280;5591;42.626;23.380;2022-07-29T03:18:56;94327.97;;;18.69;100.00
11077;BME280;5591;42.626;23.380;2022-07-29T03:21:25;94321.72;;;18.75;100.00
11077;BME280;5591;42.626;23.380;2022-07-29T03:23:52;94328.66;;;18.76;100.00
11077;BME280;5591;42.626;23.380;2022-07-29T03:26:19;94328.66;;;18.65;100.00
11077;BME280;5591;42.626;23.380;2022-07-29T03:28:46;94328.19;;;18.68;100.00
11077;BME280;5591;42.626;23.380;2022-07-29T03:31:12;94332.59;;;18.62;100.00
11077;BME280;5591;42.626;23.380;2022-07-29T03:33:39;94335.47;;;18.72;100.00
11077;BME280;5591;42.626;23.380;2022-07-29T03:36:06;94332.88;;;18.89;100.00
11077;BME280;5591;42.626;23.380;2022-07-29T03:38:35;94323.41;;;18.93;100.00
11077;BME280;5591;42.626;23.380;2022-07-29T03:41:05;94320.19;;;18.91;100.00
11077;BME280;5591;42.626;23.380;2022-07-29T03:43:37;94333.28;;;18.81;100.00
11077;BME280;5591;42.626;23.380;2022-07-29T03:46:06;94347.22;;;18.88;100.00
11077;BME280;5591;42.626;23.380;2022-07-29T03:48:37;94332.44;;;18.80;100.00
11077;BME280;5591;42.626;23.380;2022-07-29T03:51:06;94338.13;;;18.72;100.00
11077;BME280;5591;42.626;23.380;2022-07-29T03:53:34;94338.31;;;18.94;100.00
11077;BME280;5591;42.626;23.380;2022-07-29T03:56:02;94341.53;;;18.96;100.00
11077;BME280;5591;42.626;23.380;2022-07-29T03:58:31;94344.75;;;18.98;100.00
11077;BME280;5591;42.626;23.380;2022-07-29T04:00:58;94344.75;;;18.98;100.00
11077;BME280;5591;42.626;23.380;2022-07-29T04:03:25;94344.25;;;19.12;100.00
11077;BME280;5591;42.626;23.380;2022-07-29T04:06:02;94342.06;;;19.21;100.00
11077;BME280;5591;42.626;23.380;2022-07-29T04:08:31;94342.16;;;19.26;100.00
11077;BME280;5591;42.626;23.380;2022-07-29T04:11:00;94342.84;;;19.33;100.00
11077;BME280;5591;42.626;23.380;2022-07-29T04:13:26;94341.69;;;19.29;100.00
11077;BME280;5591;42.626;23.380;2022-07-29T04:15:53;94343.44;;;19.23;100.00
11077;BME280;5591;42.626;23.380;2022-07-29T04:18:20;94343.00;;;19.43;100.00
11077;BME280;5591;42.626;23.380;2022-07-29T04:20:47;94307.41;;;19.32;100.00
11077;BME280;5591;42.626;23.380;2022-07-29T04:23:14;94338.03;;;19.63;100.00
11077;BME280;5591;42.626;23.380;2022-07-29T04:25:41;94343.78;;;19.71;100.00
11077;BME280;5591;42.626;23.380;2022-07-29T04:28:10;94347.81;;;19.90;100.00
11077;BME280;5591;42.626;23.380;2022-07-29T04:30:37;94337.91;;;19.86;100.00
11077;BME280;5591;42.626;23.380;2022-07-29T04:33:05;94330.94;;;19.85;100.00
11077;BME280;5591;42.626;23.380;2022-07-29T04:35:34;94343.06;;;19.92;100.00
11077;BME280;5591;42.626;23.380;2022-07-29T04:38:01;94346.50;;;20.04;100.00
11077;BME280;5591;42.626;23.380;2022-07-29T04:40:28;94341.22;;;20.26;100.00
11077;BME280;5591;42.626;23.380;2022-07-29T04:42:55;94340.97;;;20.27;100.00
11077;BME280;5591;42.626;23.380;2022-07-29T04:45:23;94352.72;;;20.47;100.00
11077;BME280;5591;42.626;23.380;2022-07-29T04:47:50;94346.81;;;20.62;100.00
11077;BME280;5591;42.626;23.380;2022-07-29T04:50:17;94354.16;;;20.88;100.00
11077;BME280;5591;42.626;23.380;2022-07-29T04:52:44;94354.69;;;21.11;100.00
11077;BME280;5591;42.626;23.380;2022-07-29T04:55:10;94359.41;;;21.26;100.00
11077;BME280;5591;42.626;23.380;2022-07-29T04:57:37;94351.00;;;21.39;100.00
11077;BME280;5591;42.626;23.380;2022-07-29T05:00:05;94350.19;;;21.38;100.00
11077;BME280;5591;42.626;23.380;2022-07-29T05:02:33;94364.22;;;21.72;100.00
11077;BME280;5591;42.626;23.380;2022-07-29T05:05:00;94373.22;;;21.44;100.00
11077;BME280;5591;42.626;23.380;2022-07-29T05:07:27;94370.69;;;21.81;100.00
11077;BME280;5591;42.626;23.380;2022-07-29T05:09:53;94371.50;;;21.81;100.00
11077;BME280;5591;42.626;23.380;2022-07-29T05:12:22;94372.59;;;21.85;100.00
11077;BME280;5591;42.626;23.380;2022-07-29T05:14:49;94371.16;;;21.99;100.00
11077;BME280;5591;42.626;23.380;2022-07-29T05:17:15;94362.97;;;21.84;100.00
11077;BME280;5591;42.626;23.380;2022-07-29T05:19:44;94373.31;;;21.76;100.00
11077;BME280;5591;42.626;23.380;2022-07-29T05:22:11;94375.47;;;21.79;100.00
11077;BME280;5591;42.626;23.380;2022-07-29T05:24:37;94383.28;;;21.85;100.00
11077;BME280;5591;42.626;23.380;2022-07-29T05:27:04;94381.75;;;21.89;100.00
11077;BME280;5591;42.626;23.380;2022-07-29T05:29:31;94386.16;;;22.05;100.00
11077;BME280;5591;42.626;23.380;2022-07-29T05:31:58;94381.09;;;22.09;100.00
11077;BME280;5591;42.626;23.380;2022-07-29T05:34:24;94383.44;;;22.00;100.00
11077;BME280;5591;42.626;23.380;2022-07-29T05:36:52;94387.09;;;22.21;100.00
11077;BME280;5591;42.626;23.380;2022-07-29T05:39:19;94385.19;;;22.16;100.00
11077;BME280;5591;42.626;23.380;2022-07-29T05:41:46;94379.03;;;22.16;100.00
11077;BME280;5591;42.626;23.380;2022-07-29T05:44:13;94387.69;;;22.28;100.00
11077;BME280;5591;42.626;23.380;2022-07-29T05:46:40;94389.03;;;22.30;100.00
11077;BME280;5591;42.626;23.380;2022-07-29T05:49:07;94395.41;;;22.56;100.00
11077;BME280;5591;42.626;23.380;2022-07-29T05:51:34;94395.53;;;22.71;100.00
11077;BME280;5591;42.626;23.380;2022-07-29T05:54:02;94404.75;;;22.90;100.00
11077;BME280;5591;42.626;23.380;2022-07-29T05:56:29;94387.03;;;22.84;100.00
11077;BME280;5591;42.626;23.380;2022-07-29T05:58:55;94395.78;;;23.10;100.00
11077;BME280;5591;42.626;23.380;2022-07-29T06:01:22;94386.22;;;23.24;100.00
11077;BME280;5591;42.626;23.380;2022-07-29T06:03:49;94388.22;;;23.07;100.00
11077;BME280;5591;42.626;23.380;2022-07-29T06:06:16;94394.53;;;22.87;100.00
11077;BME280;5591;42.626;23.380;2022-07-29T06:08:43;94391.97;;;23.06;100.00
11077;BME280;5591;42.626;23.380;2022-07-29T06:11:11;94392.66;;;23.28;100.00
11077;BME280;5591;42.626;23.380;2022-07-29T06:13:38;94394.88;;;23.51;100.00
11077;BME280;5591;42.626;23.380;2022-07-29T06:16:04;94388.78;;;23.71;100.00
11077;BME280;5591;42.626;23.380;2022-07-29T06:18:31;94403.09;;;24.06;100.00
11077;BME280;5591;42.626;23.380;2022-07-29T06:20:58;94403.38;;;24.05;100.00
11077;BME280;5591;42.626;23.380;2022-07-29T06:23:25;94391.28;;;23.97;100.00
11077;BME280;5591;42.626;23.380;2022-07-29T06:25:52;94402.03;;;24.22;100.00
11077;BME280;5591;42.626;23.380;2022-07-29T06:28:20;94398.31;;;24.38;100.00
11077;BME280;5591;42.626;23.380;2022-07-29T06:30:47;94394.81;;;24.33;100.00
11077;BME280;5591;42.626;23.380;2022-07-29T06:33:16;94401.78;;;24.44;100.00
11077;BME280;5591;42.626;23.380;2022-07-29T06:35:43;94403.97;;;24.57;100.00
11077;BME280;5591;42.626;23.380;2022-07-29T06:38:12;94399.91;;;24.69;100.00
11077;BME280;5591;42.626;23.380;2022-07-29T06:40:41;94400.19;;;24.68;100.00
11077;BME280;5591;42.626;23.380;2022-07-29T06:43:28;94389.19;;;24.54;100.00
11077;BME280;5591;42.626;23.380;2022-07-29T06:45:58;94396.94;;;24.81;100.00
11077;BME280;5591;42.626;23.380;2022-07-29T06:48:25;94397.75;;;24.86;100.00
11077;BME280;5591;42.626;23.380;2022-07-29T06:50:52;94393.19;;;24.82;100.00
11077;BME280;5591;42.626;23.380;2022-07-29T06:53:19;94389.94;;;24.95;100.00
11077;BME280;5591;42.626;23.380;2022-07-29T06:55:45;94393.69;;;24.99;100.00
11077;BME280;5591;42.626;23.380;2022-07-29T06:58:12;94385.91;;;25.02;100.00
11077;BME280;5591;42.626;23.380;2022-07-29T07:00:42;94387.78;;;24.92;100.00
11077;BME280;5591;42.626;23.380;2022-07-29T07:03:09;94388.53;;;25.12;100.00
11077;BME280;5591;42.626;23.380;2022-07-29T07:05:36;94377.53;;;25.19;100.00
11077;BME280;5591;42.626;23.380;2022-07-29T07:08:03;94388.47;;;25.47;100.00
11077;BME280;5591;42.626;23.380;2022-07-29T07:10:30;94384.00;;;25.76;100.00
11077;BME280;5591;42.626;23.380;2022-07-29T07:12:57;94385.16;;;25.60;100.00
11077;BME280;5591;42.626;23.380;2022-07-29T07:15:23;94377.56;;;25.72;100.00
11077;BME280;5591;42.626;23.380;2022-07-29T07:17:51;94387.00;;;26.18;100.00
11077;BME280;5591;42.626;23.380;2022-07-29T07:20:18;94388.81;;;26.27;100.00
11077;BME280;5591;42.626;23.380;2022-07-29T07:22:45;94383.84;;;26.44;100.00
11077;BME280;5591;42.626;23.380;2022-07-29T07:25:12;94390.47;;;26.62;100.00
11077;BME280;5591;42.626;23.380;2022-07-29T07:27:39;94389.09;;;26.64;100.00
11077;BME280;5591;42.626;23.380;2022-07-29T07:30:06;94385.97;;;26.47;100.00
11077;BME280;5591;42.626;23.380;2022-07-29T07:32:34;94383.78;;;26.54;100.00
11077;BME280;5591;42.626;23.380;2022-07-29T07:35:02;94382.69;;;26.22;100.00
11077;BME280;5591;42.626;23.380;2022-07-29T07:37:29;94378.00;;;26.32;100.00
11077;BME280;5591;42.626;23.380;2022-07-29T07:39:56;94377.47;;;26.35;100.00
11077;BME280;5591;42.626;23.380;2022-07-29T07:42:23;94381.06;;;26.21;100.00
11077;BME280;5591;42.626;23.380;2022-07-29T07:44:50;94373.44;;;26.33;100.00
11077;BME280;5591;42.626;23.380;2022-07-29T07:47:17;94342.88;;;26.52;100.00
11077;BME280;5591;42.626;23.380;2022-07-29T07:49:45;94378.25;;;26.98;100.00
11077;BME280;5591;42.626;23.380;2022-07-29T07:52:14;94379.28;;;27.30;100.00
11077;BME280;5591;42.626;23.380;2022-07-29T07:54:41;94372.13;;;27.21;100.00
11077;BME280;5591;42.626;23.380;2022-07-29T07:57:08;94373.25;;;27.38;100.00
11077;BME280;5591;42.626;23.380;2022-07-29T07:59:35;94370.56;;;27.38;100.00
11077;BME280;5591;42.626;23.380;2022-07-29T08:02:02;94360.13;;;27.32;100.00
11077;BME280;5591;42.626;23.380;2022-07-29T08:04:28;94354.38;;;27.38;100.00
11077;BME280;5591;42.626;23.380;2022-07-29T08:06:56;94374.84;;;27.86;97.88
11077;BME280;5591;42.626;23.380;2022-07-29T08:09:26;94372.06;;;27.68;98.85
11077;BME280;5591;42.626;23.380;2022-07-29T08:11:53;94375.94;;;28.04;97.32
11077;BME280;5591;42.626;23.380;2022-07-29T08:14:20;94368.09;;;28.21;96.01
11077;BME280;5591;42.626;23.380;2022-07-29T08:16:47;94375.03;;;28.45;92.34
11077;BME280;5591;42.626;23.380;2022-07-29T08:19:14;94374.91;;;28.18;94.33
11077;BME280;5591;42.626;23.380;2022-07-29T08:21:41;94367.47;;;28.10;94.50
11077;BME280;5591;42.626;23.380;2022-07-29T08:24:08;94366.81;;;28.37;88.24
11077;BME280;5591;42.626;23.380;2022-07-29T08:26:53;94367.75;;;28.46;87.39
11077;BME280;5591;42.626;23.380;2022-07-29T08:29:20;94361.31;;;28.42;87.81
11077;BME280;5591;42.626;23.380;2022-07-29T08:31:47;94374.75;;;28.28;86.73
11077;BME280;5591;42.626;23.380;2022-07-29T08:34:14;94321.25;;;28.30;86.06
11077;BME280;5591;42.626;23.380;2022-07-29T08:36:41;94358.22;;;28.67;86.51
11077;BME280;5591;42.626;23.380;2022-07-29T08:39:07;94362.13;;;28.74;85.35
11077;BME280;5591;42.626;23.380;2022-07-29T08:41:34;94360.81;;;29.03;83.24
11077;BME280;5591;42.626;23.380;2022-07-29T08:44:03;94367.16;;;29.26;79.12
11077;BME280;5591;42.626;23.380;2022-07-29T08:46:30;94364.56;;;29.34;77.98
11077;BME280;5591;42.626;23.380;2022-07-29T08:48:57;94363.78;;;29.61;74.18
11077;BME280;5591;42.626;23.380;2022-07-29T08:51:25;94356.25;;;29.44;76.52
11077;BME280;5591;42.626;23.380;2022-07-29T08:53:54;94367.94;;;29.94;72.93
11077;BME280;5591;42.626;23.380;2022-07-29T08:56:22;94368.59;;;29.50;70.75
11077;BME280;5591;42.626;23.380;2022-07-29T08:58:49;94352.81;;;29.79;65.72
11077;BME280;5591;42.626;23.380;2022-07-29T09:01:22;94362.06;;;30.27;68.31
11077;BME280;5591;42.626;23.380;2022-07-29T09:03:49;94351.75;;;30.73;68.24
11077;BME280;5591;42.626;23.380;2022-07-29T09:06:21;94353.19;;;31.01;64.55
11077;BME280;5591;42.626;23.380;2022-07-29T09:08:48;94371.03;;;31.16;62.92
11077;BME280;5591;42.626;23.380;2022-07-29T09:11:15;94358.31;;;31.33;59.75
11077;BME280;5591;42.626;23.380;2022-07-29T09:13:42;94354.84;;;31.88;57.29
11077;BME280;5591;42.626;23.380;2022-07-29T09:16:08;94352.16;;;32.05;56.78
11077;BME280;5591;42.626;23.380;2022-07-29T09:18:38;94347.06;;;32.12;56.65
11077;BME280;5591;42.626;23.380;2022-07-29T09:21:07;94342.13;;;32.48;55.07
11077;BME280;5591;42.626;23.380;2022-07-29T09:24:03;94342.13;;;32.74;54.06
11077;BME280;5591;42.626;23.380;2022-07-29T09:26:32;94360.34;;;32.90;54.23
11077;BME280;5591;42.626;23.380;2022-07-29T09:28:59;94352.88;;;31.72;57.59
11077;BME280;5591;42.626;23.380;2022-07-29T09:31:33;94354.22;;;32.08;57.95
11077;BME280;5591;42.626;23.380;2022-07-29T09:34:02;94325.38;;;31.65;56.93
11077;BME280;5591;42.626;23.380;2022-07-29T09:36:29;94350.88;;;31.55;57.94
11077;BME280;5591;42.626;23.380;2022-07-29T09:38:59;94350.13;;;31.63;60.14
11077;BME280;5591;42.626;23.380;2022-07-29T09:41:27;94354.34;;;31.86;60.31
11077;BME280;5591;42.626;23.380;2022-07-29T09:43:55;94356.72;;;31.71;61.11
11077;BME280;5591;42.626;23.380;2022-07-29T09:46:23;94348.31;;;32.06;59.90
11077;BME280;5591;42.626;23.380;2022-07-29T09:49:07;94336.66;;;32.14;59.42
11077;BME280;5591;42.626;23.380;2022-07-29T09:51:34;94330.59;;;32.51;57.39
11077;BME280;5591;42.626;23.380;2022-07-29T09:54:01;94332.84;;;32.58;56.21
11077;BME280;5591;42.626;23.380;2022-07-29T09:56:39;94332.38;;;32.64;54.16
11077;BME280;5591;42.626;23.380;2022-07-29T09:59:07;94327.88;;;32.77;54.68
11077;BME280;5591;42.626;23.380;2022-07-29T10:01:34;94275.09;;;32.52;52.11
11077;BME280;5591;42.626;23.380;2022-07-29T10:04:02;94329.41;;;33.12;49.79
11077;BME280;5591;42.626;23.380;2022-07-29T10:06:30;94321.50;;;33.36;50.82
11077;BME280;5591;42.626;23.380;2022-07-29T10:09:07;94312.69;;;33.68;50.03
11077;BME280;5591;42.626;23.380;2022-07-29T10:11:34;94316.44;;;33.84;49.83
11077;BME280;5591;42.626;23.380;2022-07-29T10:14:02;94319.47;;;34.11;47.31
11077;BME280;5591;42.626;23.380;2022-07-29T10:16:30;94312.03;;;34.20;46.34
11077;BME280;5591;42.626;23.380;2022-07-29T10:18:59;94235.44;;;33.72;45.97
11077;BME280;5591;42.626;23.380;2022-07-29T10:21:26;94308.38;;;34.16;44.75
11077;BME280;5591;42.626;23.380;2022-07-29T10:23:54;94309.53;;;34.36;45.49
11077;BME280;5591;42.626;23.380;2022-07-29T10:26:23;94307.97;;;34.06;45.52
11077;BME280;5591;42.626;23.380;2022-07-29T10:28:50;94306.22;;;33.81;47.12
11077;BME280;5591;42.626;23.380;2022-07-29T10:31:24;94300.50;;;34.15;46.78
11077;BME280;5591;42.626;23.380;2022-07-29T10:34:00;94294.94;;;33.91;45.64
11077;BME280;5591;42.626;23.380;2022-07-29T10:36:43;94297.59;;;33.79;45.31
11077;BME280;5591;42.626;23.380;2022-07-29T10:39:23;94291.19;;;33.75;46.52
11077;BME280;5591;42.626;23.380;2022-07-29T10:42:02;94292.69;;;33.26;46.21
11077;BME280;5591;42.626;23.380;2022-07-29T10:44:32;94286.94;;;33.19;46.44
11077;BME280;5591;42.626;23.380;2022-07-29T10:46:59;94287.78;;;33.11;46.77
11077;BME280;5591;42.626;23.380;2022-07-29T10:49:26;94283.69;;;33.63;46.58
11077;BME280;5591;42.626;23.380;2022-07-29T10:52:02;94288.81;;;33.73;44.87
11077;BME280;5591;42.626;23.380;2022-07-29T10:54:45;94283.81;;;33.96;43.92
11077;BME280;5591;42.626;23.380;2022-07-29T10:57:30;94274.03;;;34.24;42.98
11077;BME280;5591;42.626;23.380;2022-07-29T11:00:28;94272.09;;;34.24;42.47
11077;BME280;5591;42.626;23.380;2022-07-29T11:02:55;94282.56;;;34.14;42.88
11077;BME280;5591;42.626;23.380;2022-07-29T11:05:23;94207.00;;;33.82;44.80
11077;BME280;5591;42.626;23.380;2022-07-29T11:08:17;94280.88;;;34.82;42.18
11077;BME280;5591;42.626;23.380;2022-07-29T11:10:47;94277.69;;;34.60;41.45
11077;BME280;5591;42.626;23.380;2022-07-29T11:13:48;94272.47;;;34.14;43.24
11077;BME280;5591;42.626;23.380;2022-07-29T11:16:18;94263.94;;;34.24;43.47
11077;BME280;5591;42.626;23.380;2022-07-29T11:19:19;94266.16;;;34.43;40.93
11077;BME280;5591;42.626;23.380;2022-07-29T11:21:46;94263.50;;;34.87;40.39
11077;BME280;5591;42.626;23.380;2022-07-29T11:24:17;94266.09;;;34.95;41.06
11077;BME280;5591;42.626;23.380;2022-07-29T11:26:46;94254.06;;;35.08;40.53
11077;BME280;5591;42.626;23.380;2022-07-29T11:29:32;94262.41;;;35.24;39.87
11077;BME280;5591;42.626;23.380;2022-07-29T11:32:09;94246.72;;;35.21;38.46
11077;BME280;5591;42.626;23.380;2022-07-29T11:34:36;94249.44;;;35.57;38.67
11077;BME280;5591;42.626;23.380;2022-07-29T11:37:20;94247.09;;;36.07;38.23
11077;BME280;5591;42.626;23.380;2022-07-29T11:40:08;94249.41;;;35.93;36.76
11077;BME280;5591;42.626;23.380;2022-07-29T11:42:52;94247.63;;;37.38;35.54
11077;BME280;5591;42.626;23.380;2022-07-29T11:45:26;94232.94;;;38.68;34.36
11077;BME280;5591;42.626;23.380;2022-07-29T11:48:17;94246.56;;;39.70;32.43
11077;BME280;5591;42.626;23.380;2022-07-29T11:50:44;94234.81;;;40.87;30.87
11077;BME280;5591;42.626;23.380;2022-07-29T11:53:13;94243.19;;;41.77;29.23
11077;BME280;5591;42.626;23.380;2022-07-29T11:55:40;94243.31;;;41.98;29.94
11077;BME280;5591;42.626;23.380;2022-07-29T11:58:09;94246.88;;;42.67;28.46
11077;BME280;5591;42.626;23.380;2022-07-29T12:00:39;94240.31;;;43.10;28.02
11077;BME280;5591;42.626;23.380;2022-07-29T12:03:08;94232.66;;;42.61;27.43
11077;BME280;5591;42.626;23.380;2022-07-29T12:05:40;94233.78;;;42.50;27.73
11077;BME280;5591;42.626;23.380;2022-07-29T12:08:12;94228.03;;;42.11;28.61
11077;BME280;5591;42.626;23.380;2022-07-29T12:10:39;94237.44;;;41.53;27.70
11077;BME280;5591;42.626;23.380;2022-07-29T12:13:08;94232.69;;;42.65;26.87
11077;BME280;5591;42.626;23.380;2022-07-29T12:15:35;94238.72;;;42.20;28.15
11077;BME280;5591;42.626;23.380;2022-07-29T12:18:13;94243.47;;;42.98;27.39
11077;BME280;5591;42.626;23.380;2022-07-29T12:20:40;94241.97;;;43.35;26.11
11077;BME280;5591;42.626;23.380;2022-07-29T12:23:08;94226.94;;;43.29;27.29
11077;BME280;5591;42.626;23.380;2022-07-29T12:25:37;94239.81;;;42.76;26.96
11077;BME280;5591;42.626;23.380;2022-07-29T12:28:06;94229.28;;;42.17;27.50
11077;BME280;5591;42.626;23.380;2022-07-29T12:30:37;94224.94;;;43.26;26.94
11077;BME280;5591;42.626;23.380;2022-07-29T12:33:26;94228.09;;;44.22;25.66
11077;BME280;5591;42.626;23.380;2022-07-29T12:35:56;94233.03;;;44.87;25.18
11077;BME280;5591;42.626;23.380;2022-07-29T12:38:23;94229.91;;;44.81;25.00
11077;BME280;5591;42.626;23.380;2022-07-29T12:40:52;94215.56;;;44.93;24.28
11077;BME280;5591;42.626;23.380;2022-07-29T12:43:20;94142.88;;;44.58;25.37
11077;BME280;5591;42.626;23.380;2022-07-29T12:45:50;94219.38;;;45.24;24.13
11077;BME280;5591;42.626;23.380;2022-07-29T12:48:17;94216.97;;;45.80;23.85
11077;BME280;5591;42.626;23.380;2022-07-29T12:50:59;94222.13;;;46.22;24.49
11077;BME280;5591;42.626;23.380;2022-07-29T12:53:27;94215.09;;;45.09;25.04
11077;BME280;5591;42.626;23.380;2022-07-29T12:55:56;94212.97;;;44.62;25.34
11077;BME280;5591;42.626;23.380;2022-07-29T12:58:29;94215.03;;;45.74;24.63
11077;BME280;5591;42.626;23.380;2022-07-29T13:01:03;94213.22;;;47.04;22.76
11077;BME280;5591;42.626;23.380;2022-07-29T13:03:45;94202.66;;;46.59;24.15
11077;BME280;5591;42.626;23.380;2022-07-29T13:06:29;94188.00;;;45.78;24.68
11077;BME280;5591;42.626;23.380;2022-07-29T13:09:06;94190.59;;;44.97;24.51